| time (UTC) | temp F | wind direction | speed MPH | gust MPH | rain 1hr in | rain 24hr in | rain mn in | humidity % | barometer mb |
| 20260904212006 | 60 | 241 | 7.0 | 17.0 | 0.09 | 0.18 | 0.18 | 92 | 1010.3 |
| 20260904211543 | 60 | 283 | 7.0 | 17.0 | 0.08 | 0.17 | 0.17 | 92 | 1010.0 |
| 20260904211026 | 59 | 220 | 8.0 | 16.0 | 0.07 | 0.17 | 0.17 | 92 | 1010.0 |
| 20260904210533 | 60 | 242 | 8.0 | 14.0 | 0.08 | 0.17 | 0.17 | 92 | 1010.1 |
| 20260904210044 | 60 | 236 | 8.0 | 13.0 | 0.08 | 0.16 | 0.16 | 92 | 1010.1 |
| 20260904205548 | 60 | 273 | 6.0 | 16.0 | 0.08 | 0.15 | 0.15 | 92 | 1010.3 |
| 20260904205033 | 60 | 273 | 10.0 | 16.0 | 0.09 | 0.15 | 0.15 | 92 | 1010.2 |
| 20260904204514 | 60 | 271 | 8.0 | 14.0 | 0.09 | 0.13 | 0.13 | 91 | 1010.0 |
| 20260904204048 | 60 | 200 | 8.0 | 13.0 | 0.08 | 0.13 | 0.13 | 91 | 1010.0 |
| 20260904203553 | 60 | 259 | 5.0 | 16.0 | 0.07 | 0.11 | 0.11 | 91 | 1010.3 |
| 20260904203004 | 60 | 241 | 9.0 | 14.0 | 0.07 | 0.10 | 0.10 | 91 | 1010.1 |
| 20260904202510 | 60 | 284 | 6.0 | 16.0 | 0.06 | 0.09 | 0.10 | 91 | 1010.2 |
| 20260904202019 | 60 | 263 | 10.0 | 16.0 | 0.06 | 0.09 | 0.09 | 91 | 1009.9 |
| 20260904201534 | 60 | 238 | 5.0 | 15.0 | 0.07 | 0.09 | 0.09 | 90 | 1009.5 |
| 20260904201009 | 60 | 257 | 6.0 | 15.0 | 0.07 | 0.09 | 0.09 | 90 | 1009.7 |
| 20260904200547 | 60 | 257 | 7.0 | 17.0 | 0.06 | 0.09 | 0.09 | 90 | 1010.0 |
| 20260904200057 | 60 | 290 | 7.0 | 17.0 | 0.06 | 0.08 | 0.08 | 90 | 1009.8 |
| 20260904195508 | 60 | 279 | 5.0 | 13.0 | 0.06 | 0.07 | 0.07 | 89 | 1009.9 |
| 20260904195043 | 60 | 277 | 7.0 | 15.0 | 0.04 | 0.06 | 0.06 | 89 | 1009.6 |
| 20260904194525 | 60 | 251 | 8.0 | 15.0 | 0.03 | 0.05 | 0.05 | 88 | 1009.7 |
| 20260904194033 | 60 | 228 | 3.0 | 14.0 | 0.03 | 0.05 | 0.05 | 88 | 1010.0 |
| 20260904193545 | 61 | 284 | 7.0 | 14.0 | 0.02 | 0.04 | 0.04 | 87 | 1010.3 |
| 20260904193049 | 61 | 228 | 8.0 | 15.0 | 0.02 | 0.03 | 0.03 | 86 | 1010.3 |
| 20260904192551 | 61 | 252 | 8.0 | 15.0 | 0.02 | 0.03 | 0.03 | 85 | 1010.0 |
| 20260904192100 | 62 | 267 | 8.0 | 15.0 | 0.02 | 0.03 | 0.03 | 83 | 1010.1 |
| 20260904192003 | 62 | 284 | 5.0 | 15.0 | 0.02 | 0.03 | 0.03 | 83 | 1010.3 |
| 20260904191507 | 62 | 217 | 5.0 | 21.0 | 0.01 | 0.02 | 0.02 | 82 | 1010.3 |
| 20260904191017 | 63 | 246 | 6.0 | 19.0 | 0.01 | 0.02 | 0.02 | 80 | 1010.3 |
| 20260904190522 | 64 | 220 | 8.0 | 19.0 | 0.01 | 0.02 | 0.02 | 78 | 1010.5 |
| 20260904190054 | 64 | 246 | 6.0 | 16.0 | 0.00 | 0.02 | 0.02 | 76 | 1010.6 |
| 20260904185541 | 65 | 253 | 6.0 | 16.0 | 0.00 | 0.02 | 0.02 | 75 | 1010.6 |
| 20260904185053 | 65 | 317 | 1.0 | 26.0 | 0.00 | 0.02 | 0.02 | 76 | 1010.4 |
| 20260904184553 | 65 | 277 | 5.0 | 21.0 | 0.00 | 0.02 | 0.02 | 75 | 1010.5 |
| 20260904184035 | 65 | 325 | 12.0 | 28.0 | 0.00 | 0.02 | 0.02 | 76 | 1010.4 |
| 20260904183517 | 65 | 271 | 5.0 | 17.0 | 0.00 | 0.02 | 0.02 | 77 | 1009.9 |
| 20260904183025 | 65 | 249 | 9.0 | 21.0 | 0.00 | 0.02 | 0.02 | 77 | 1009.7 |
| 20260904182600 | 65 | 269 | 9.0 | 19.0 | 0.00 | 0.02 | 0.02 | 76 | 1009.7 |
| 20260904182507 | 65 | 269 | 9.0 | 19.0 | 0.00 | 0.02 | 0.02 | 76 | 1009.7 |
| 20260904182046 | 65 | 246 | 7.0 | 16.0 | 0.00 | 0.02 | 0.02 | 77 | 1009.4 |
| 20260904181556 | 65 | 276 | 9.0 | 19.0 | 0.00 | 0.02 | 0.02 | 77 | 1009.3 |
| 20260904181005 | 65 | 257 | 11.0 | 19.0 | 0.00 | 0.02 | 0.02 | 77 | 1009.3 |
| 20260904180514 | 65 | 272 | 11.0 | 19.0 | 0.00 | 0.02 | 0.02 | 78 | 1009.4 |
| 20260904180100 | 65 | 257 | 10.0 | 24.0 | 0.00 | 0.02 | 0.02 | 78 | 1009.3 |
| 20260904175502 | 65 | 261 | 9.0 | 24.0 | 0.00 | 0.02 | 0.02 | 79 | 1009.0 |
| 20260904175008 | 65 | 274 | 10.0 | 18.0 | 0.00 | 0.02 | 0.02 | 79 | 1008.8 |
| 20260904174524 | 65 | 264 | 7.0 | 18.0 | 0.02 | 0.02 | 0.02 | 80 | 1008.7 |
| 20260904174022 | 65 | 266 | 10.0 | 17.0 | 0.02 | 0.02 | 0.02 | 80 | 1008.6 |
| 20260904173558 | 66 | 247 | 11.0 | 17.0 | 0.02 | 0.02 | 0.02 | 79 | 1008.5 |
| 20260904173500 | 66 | 282 | 11.0 | 17.0 | 0.02 | 0.02 | 0.02 | 79 | 1008.5 |
| 20260904173108 | 66 | 51 | 10.0 | 18.0 | 0.02 | 0.02 | 0.02 | 80 | 1008.4 |
| 20260904172552 | 66 | 320 | 11.0 | 18.0 | 0.02 | 0.02 | 0.02 | 81 | 1008.3 |
| 20260904172057 | 66 | 326 | 8.0 | 18.0 | 0.02 | 0.02 | 0.02 | 81 | 1008.3 |
| 20260904171507 | 67 | 344 | 7.0 | 20.0 | 0.02 | 0.02 | 0.02 | 79 | 1008.2 |
| 20260904171014 | 67 | 213 | 8.0 | 20.0 | 0.02 | 0.02 | 0.02 | 78 | 1008.1 |
| 20260904170554 | 68 | 292 | 8.0 | 20.0 | 0.02 | 0.02 | 0.02 | 79 | 1008.1 |
| 20260904170033 | 68 | 306 | 9.0 | 20.0 | 0.02 | 0.02 | 0.02 | 79 | 1008.1 |
| 20260904165548 | 70 | 271 | 7.0 | 20.0 | 0.02 | 0.02 | 0.02 | 78 | 1007.7 |
| 20260904165051 | 72 | 243 | 10.0 | 47.0 | 0.02 | 0.02 | 0.02 | 78 | 1007.8 |
| 20260904164556 | 76 | 292 | 22.0 | 47.0 | 0.00 | 0.00 | 0.01 | 71 | 1007.2 |
| 20260904164504 | 76 | 252 | 22.0 | 47.0 | 0.00 | 0.00 | 0.00 | 70 | 1007.1 |
| 20260904164032 | 77 | 283 | 6.0 | 20.0 | 0.00 | 0.00 | 0.00 | 66 | 1006.0 |
| 20260904163519 | 77 | 202 | 7.0 | 20.0 | 0.00 | 0.00 | 0.00 | 64 | 1005.8 |
| 20260904163054 | 77 | 281 | 4.0 | 18.0 | 0.00 | 0.00 | 0.00 | 64 | 1005.8 |
| 20260904162506 | 77 | 248 | 7.0 | 23.0 | 0.00 | 0.00 | 0.00 | 64 | 1006.1 |
| 20260904162012 | 77 | 288 | 4.0 | 18.0 | 0.00 | 0.00 | 0.00 | 64 | 1006.2 |
| 20260904161519 | 77 | 168 | 8.0 | 20.0 | 0.00 | 0.00 | 0.00 | 64 | 1006.2 |
| 20260904161059 | 77 | 238 | 11.0 | 20.0 | 0.00 | 0.00 | 0.00 | 64 | 1006.2 |
| 20260904161001 | 77 | 239 | 11.0 | 20.0 | 0.00 | 0.00 | 0.00 | 64 | 1006.2 |
| 20260904160510 | 77 | 190 | 9.0 | 16.0 | 0.00 | 0.00 | 0.00 | 64 | 1006.3 |
| 20260904160013 | 77 | 245 | 7.0 | 16.0 | 0.00 | 0.00 | 0.00 | 64 | 1006.2 |
| 20260904155520 | 77 | 249 | 8.0 | 16.0 | 0.00 | 0.00 | 0.00 | 64 | 1006.2 |
| 20260904155025 | 77 | 188 | 6.0 | 17.0 | 0.00 | 0.00 | 0.00 | 64 | 1006.3 |
| 20260904154532 | 77 | 248 | 6.0 | 18.0 | 0.00 | 0.00 | 0.00 | 64 | 1006.3 |
| 20260904154044 | 77 | 249 | 10.0 | 21.0 | 0.00 | 0.00 | 0.00 | 63 | 1006.6 |
| 20260904153551 | 77 | 224 | 11.0 | 21.0 | 0.00 | 0.00 | 0.00 | 63 | 1006.4 |
| 20260904153106 | 78 | 194 | 9.0 | 20.0 | 0.00 | 0.00 | 0.00 | 63 | 1006.5 |
| 20260904152508 | 78 | 275 | 9.0 | 18.0 | 0.00 | 0.00 | 0.00 | 64 | 1006.5 |
| 20260904152045 | 78 | 245 | 7.0 | 20.0 | 0.00 | 0.00 | 0.00 | 63 | 1006.5 |
| 20260904151527 | 78 | 221 | 8.0 | 19.0 | 0.00 | 0.00 | 0.00 | 63 | 1006.4 |
| 20260904151034 | 77 | 271 | 8.0 | 19.0 | 0.00 | 0.00 | 0.00 | 64 | 1006.5 |
| 20260904150542 | 77 | 249 | 8.0 | 22.0 | 0.00 | 0.00 | 0.00 | 64 | 1006.4 |
| 20260904150035 | 77 | 276 | 9.0 | 25.0 | 0.00 | 0.00 | 0.00 | 64 | 1006.7 |
| 20260904145559 | 77 | 154 | 6.0 | 25.0 | 0.00 | 0.00 | 0.00 | 64 | 1006.7 |
| 20260904145008 | 77 | 248 | 10.0 | 27.0 | 0.00 | 0.00 | 0.00 | 64 | 1006.8 |
| 20260904144517 | 77 | 251 | 8.0 | 23.0 | 0.00 | 0.00 | 0.00 | 64 | 1006.9 |
| 20260904144023 | 77 | 246 | 12.0 | 29.0 | 0.00 | 0.00 | 0.00 | 64 | 1007.0 |
| 20260904143530 | 77 | 189 | 12.0 | 29.0 | 0.00 | 0.00 | 0.00 | 64 | 1007.0 |
| 20260904143038 | 77 | 288 | 13.0 | 23.0 | 0.00 | 0.00 | 0.00 | 64 | 1007.1 |
| 20260904142520 | 77 | 241 | 9.0 | 23.0 | 0.00 | 0.00 | 0.00 | 64 | 1007.1 |
| 20260904142101 | 77 | 238 | 9.0 | 21.0 | 0.00 | 0.00 | 0.00 | 64 | 1007.1 |
| 20260904142004 | 77 | 309 | 10.0 | 21.0 | 0.00 | 0.00 | 0.00 | 64 | 1007.2 |
| 20260904141508 | 77 | 248 | 8.0 | 25.0 | 0.00 | 0.00 | 0.00 | 64 | 1007.3 |
| 20260904141015 | 77 | 159 | 11.0 | 25.0 | 0.00 | 0.00 | 0.00 | 64 | 1007.3 |
| 20260904140522 | 77 | 235 | 7.0 | 25.0 | 0.00 | 0.00 | 0.00 | 64 | 1007.4 |
| 20260904140059 | 77 | 267 | 10.0 | 25.0 | 0.00 | 0.00 | 0.00 | 64 | 1007.5 |
| 20260904135546 | 77 | 194 | 10.0 | 23.0 | 0.00 | 0.00 | 0.00 | 64 | 1007.6 |
| 20260904135053 | 77 | 187 | 11.0 | 23.0 | 0.00 | 0.00 | 0.00 | 64 | 1007.5 |
| 20260904134606 | 77 | 241 | 11.0 | 19.0 | 0.00 | 0.00 | 0.00 | 65 | 1007.5 |
| 20260904134503 | 77 | 257 | 7.0 | 19.0 | 0.00 | 0.00 | 0.00 | 64 | 1007.5 |
| 20260904134010 | 77 | 247 | 10.0 | 24.0 | 0.00 | 0.00 | 0.00 | 64 | 1007.8 |
| 20260904133546 | 77 | 201 | 11.0 | 25.0 | 0.00 | 0.00 | 0.00 | 65 | 1007.8 |
| 20260904133031 | 76 | 279 | 13.0 | 25.0 | 0.00 | 0.00 | 0.00 | 65 | 1008.0 |
| 20260904132537 | 76 | 183 | 9.0 | 25.0 | 0.00 | 0.00 | 0.00 | 66 | 1008.1 |
| 20260904132049 | 76 | 225 | 12.0 | 25.0 | 0.00 | 0.00 | 0.00 | 66 | 1008.1 |
| 20260904131552 | 76 | 185 | 4.0 | 22.0 | 0.00 | 0.00 | 0.00 | 66 | 1008.4 |
| 20260904131040 | 76 | 151 | 4.0 | 17.0 | 0.00 | 0.00 | 0.00 | 66 | 1008.2 |
| 20260904130545 | 76 | 254 | 6.0 | 17.0 | 0.00 | 0.00 | 0.00 | 66 | 1008.4 |
| 20260904130048 | 76 | 200 | 6.0 | 17.0 | 0.00 | 0.00 | 0.00 | 66 | 1008.5 |
| 20260904125533 | 76 | 279 | 7.0 | 19.0 | 0.00 | 0.00 | 0.00 | 66 | 1008.6 |
| 20260904125013 | 76 | 226 | 8.0 | 20.0 | 0.00 | 0.00 | 0.00 | 65 | 1008.7 |
| 20260904124521 | 76 | 237 | 8.0 | 21.0 | 0.00 | 0.00 | 0.00 | 65 | 1008.8 |
| 20260904124027 | 76 | 266 | 9.0 | 21.0 | 0.00 | 0.00 | 0.00 | 65 | 1008.9 |
| 20260904123510 | 76 | 211 | 9.0 | 24.0 | 0.00 | 0.00 | 0.00 | 64 | 1008.9 |
| 20260904123050 | 76 | 241 | 11.0 | 24.0 | 0.00 | 0.00 | 0.00 | 64 | 1008.9 |
| 20260904122600 | 76 | 237 | 10.0 | 24.0 | 0.00 | 0.00 | 0.00 | 65 | 1008.9 |
| 20260904122502 | 76 | 237 | 11.0 | 26.0 | 0.00 | 0.00 | 0.00 | 65 | 1008.9 |
| 20260904122009 | 76 | 263 | 8.0 | 26.0 | 0.00 | 0.00 | 0.00 | 65 | 1009.1 |
| 20260904121548 | 76 | 296 | 15.0 | 26.0 | 0.00 | 0.00 | 0.00 | 64 | 1009.2 |
| 20260904121100 | 76 | 213 | 15.0 | 26.0 | 0.00 | 0.00 | 0.00 | 64 | 1009.4 |
| 20260904120506 | 77 | 277 | 11.0 | 23.0 | 0.00 | 0.00 | 0.00 | 64 | 1009.4 |
| 20260904120017 | 76 | 267 | 8.0 | 20.0 | 0.00 | 0.00 | 0.00 | 66 | 1009.6 |
| 20260904115522 | 76 | 220 | 8.0 | 23.0 | 0.00 | 0.00 | 0.00 | 65 | 1009.7 |
| 20260904115032 | 76 | 234 | 8.0 | 23.0 | 0.00 | 0.00 | 0.00 | 67 | 1009.6 |
| 20260904114524 | 76 | 213 | 7.0 | 20.0 | 0.00 | 0.00 | 0.00 | 67 | 1009.6 |
| 20260904114022 | 75 | 213 | 9.0 | 17.0 | 0.00 | 0.00 | 0.00 | 67 | 1009.7 |
| 20260904113530 | 75 | 245 | 6.0 | 21.0 | 0.00 | 0.00 | 0.00 | 68 | 1009.7 |
| 20260904113046 | 74 | 233 | 9.0 | 22.0 | 0.00 | 0.00 | 0.00 | 69 | 1009.9 |
| 20260904112521 | 74 | 242 | 11.0 | 22.0 | 0.00 | 0.00 | 0.00 | 68 | 1010.0 |
| 20260904112030 | 74 | 232 | 10.0 | 19.0 | 0.00 | 0.00 | 0.00 | 69 | 1010.2 |
| 20260904111536 | 74 | 281 | 8.0 | 25.0 | 0.00 | 0.00 | 0.00 | 70 | 1010.4 |
| 20260904111044 | 74 | 254 | 12.0 | 25.0 | 0.00 | 0.00 | 0.00 | 70 | 1010.4 |
| 20260904110526 | 74 | 226 | 7.0 | 19.0 | 0.00 | 0.00 | 0.00 | 71 | 1010.4 |
| 20260904110041 | 73 | 212 | 11.0 | 20.0 | 0.00 | 0.00 | 0.00 | 72 | 1010.4 |
| 20260904105546 | 73 | 141 | 3.0 | 16.0 | 0.00 | 0.00 | 0.00 | 74 | 1010.4 |
| 20260904105050 | 72 | 184 | 4.0 | 16.0 | 0.00 | 0.00 | 0.00 | 74 | 1010.5 |
| 20260904104534 | 72 | 252 | 9.0 | 20.0 | 0.00 | 0.00 | 0.00 | 74 | 1010.6 |
| 20260904104018 | 72 | 274 | 12.0 | 21.0 | 0.00 | 0.00 | 0.00 | 74 | 1010.8 |
| 20260904103526 | 72 | 246 | 11.0 | 21.0 | 0.00 | 0.00 | 0.00 | 74 | 1010.7 |
| 20260904103037 | 72 | 285 | 5.0 | 15.0 | 0.00 | 0.00 | 0.00 | 75 | 1010.9 |
| 20260904102545 | 71 | 232 | 6.0 | 19.0 | 0.00 | 0.00 | 0.00 | 75 | 1010.7 |
| 20260904102045 | 71 | 250 | 6.0 | 17.0 | 0.00 | 0.00 | 0.00 | 75 | 1011.0 |
| 20260904101528 | 71 | 214 | 5.0 | 17.0 | 0.00 | 0.00 | 0.00 | 76 | 1011.0 |
| 20260904101010 | 71 | 238 | 4.0 | 18.0 | 0.00 | 0.00 | 0.00 | 76 | 1011.1 |
| 20260904100523 | 71 | 223 | 9.0 | 17.0 | 0.00 | 0.00 | 0.00 | 76 | 1011.3 |
| 20260904100030 | 71 | 276 | 5.0 | 17.0 | 0.00 | 0.00 | 0.00 | 76 | 1011.3 |
| 20260904095515 | 72 | 175 | 8.0 | 17.0 | 0.00 | 0.00 | 0.00 | 75 | 1011.3 |
| 20260904095051 | 72 | 202 | 5.0 | 17.0 | 0.00 | 0.00 | 0.00 | 75 | 1011.5 |
| 20260904094612 | 72 | 255 | 9.0 | 18.0 | 0.00 | 0.00 | 0.00 | 74 | 1011.6 |
| 20260904094506 | 73 | 246 | 8.0 | 18.0 | 0.00 | 0.00 | 0.00 | 74 | 1011.6 |
| 20260904094010 | 72 | 236 | 5.0 | 18.0 | 0.00 | 0.00 | 0.00 | 75 | 1011.5 |
| 20260904093516 | 72 | 211 | 6.0 | 16.0 | 0.00 | 0.00 | 0.00 | 76 | 1011.7 |
| 20260904093057 | 72 | 221 | 4.0 | 18.0 | 0.00 | 0.00 | 0.00 | 77 | 1011.8 |
| 20260904092538 | 71 | 277 | 5.0 | 19.0 | 0.00 | 0.00 | 0.00 | 77 | 1011.9 |
| 20260904092049 | 71 | 257 | 6.0 | 19.0 | 0.00 | 0.00 | 0.00 | 78 | 1012.0 |
| 20260904091554 | 70 | 209 | 5.0 | 16.0 | 0.00 | 0.00 | 0.00 | 79 | 1012.1 |
| 20260904091056 | 69 | 244 | 3.0 | 12.0 | 0.00 | 0.00 | 0.00 | 82 | 1012.1 |
| 20260904091003 | 69 | 236 | 3.0 | 12.0 | 0.00 | 0.00 | 0.00 | 82 | 1012.1 |
| 20260904090542 | 69 | 252 | 2.0 | 12.0 | 0.00 | 0.00 | 0.00 | 81 | 1012.2 |
| 20260904090019 | 69 | 230 | 3.0 | 15.0 | 0.00 | 0.00 | 0.00 | 81 | 1012.3 |
| 20260904085528 | 69 | 224 | 3.0 | 14.0 | 0.00 | 0.00 | 0.00 | 81 | 1012.4 |
| 20260904085038 | 68 | 226 | 5.0 | 14.0 | 0.00 | 0.00 | 0.00 | 80 | 1012.4 |
| 20260904084516 | 69 | 231 | 3.0 | 17.0 | 0.00 | 0.00 | 0.00 | 79 | 1012.5 |
| 20260904084056 | 69 | 254 | 7.0 | 17.0 | 0.00 | 0.00 | 0.00 | 78 | 1012.8 |
| 20260904083503 | 69 | 257 | 7.0 | 15.0 | 0.00 | 0.00 | 0.00 | 77 | 1012.8 |
| 20260904083012 | 69 | 231 | 5.0 | 20.0 | 0.00 | 0.00 | 0.00 | 77 | 1012.9 |
| 20260904082518 | 69 | 268 | 7.0 | 20.0 | 0.00 | 0.00 | 0.00 | 77 | 1013.0 |
| 20260904082026 | 69 | 203 | 5.0 | 17.0 | 0.00 | 0.00 | 0.00 | 77 | 1013.0 |
| 20260904081534 | 69 | 252 | 6.0 | 17.0 | 0.00 | 0.00 | 0.00 | 77 | 1013.0 |
| 20260904081015 | 69 | 144 | 4.0 | 15.0 | 0.00 | 0.00 | 0.00 | 78 | 1012.8 |
| 20260904080555 | 69 | 171 | 4.0 | 15.0 | 0.00 | 0.00 | 0.00 | 77 | 1012.8 |
| 20260904080006 | 69 | 242 | 6.0 | 15.0 | 0.00 | 0.00 | 0.00 | 78 | 1013.0 |
| 20260904075516 | 69 | 228 | 2.0 | 11.0 | 0.00 | 0.00 | 0.00 | 79 | 1013.1 |
| 20260904075021 | 68 | 236 | 3.0 | 12.0 | 0.00 | 0.00 | 0.00 | 79 | 1013.1 |
| 20260904074551 | 68 | 238 | 5.0 | 12.0 | 0.00 | 0.00 | 0.00 | 79 | 1013.1 |
| 20260904074011 | 68 | 187 | 2.0 | 14.0 | 0.00 | 0.00 | 0.00 | 80 | 1013.2 |
| 20260904073552 | 68 | 222 | 2.0 | 14.0 | 0.00 | 0.00 | 0.00 | 80 | 1013.2 |
| 20260904073107 | 67 | 235 | 6.0 | 14.0 | 0.00 | 0.00 | 0.00 | 80 | 1013.5 |
| 20260904073001 | 67 | 244 | 5.0 | 14.0 | 0.00 | 0.00 | 0.00 | 80 | 1013.5 |
| 20260904072510 | 67 | 231 | 5.0 | 11.0 | 0.00 | 0.00 | 0.00 | 80 | 1013.5 |
| 20260904072017 | 67 | 245 | 1.0 | 11.0 | 0.00 | 0.00 | 0.00 | 81 | 1013.4 |
| 20260904071558 | 67 | 223 | 2.0 | 11.0 | 0.00 | 0.00 | 0.00 | 81 | 1013.3 |
| 20260904071041 | 67 | 240 | 2.0 | 9.0 | 0.00 | 0.00 | 0.00 | 81 | 1013.3 |
| 20260904070550 | 66 | 234 | 2.0 | 9.0 | 0.00 | 0.00 | 0.00 | 81 | 1013.4 |
| 20260904070107 | 66 | 225 | 3.0 | 9.0 | 0.00 | 0.00 | 0.00 | 81 | 1013.4 |
| 20260904065503 | 66 | 224 | 2.0 | 9.0 | 0.00 | 0.00 | 0.00 | 81 | 1013.5 |
| 20260904065009 | 66 | 223 | 1.0 | 14.0 | 0.00 | 0.00 | 0.00 | 81 | 1013.6 |
| 20260904064549 | 66 | 236 | 8.0 | 14.0 | 0.00 | 0.00 | 0.00 | 81 | 1013.6 |
| 20260904064100 | 66 | 241 | 3.0 | 13.0 | 0.00 | 0.00 | 0.00 | 82 | 1013.6 |
| 20260904064002 | 66 | 267 | 2.0 | 13.0 | 0.00 | 0.00 | 0.00 | 82 | 1013.6 |
| 20260904063505 | 66 | 231 | 5.0 | 11.0 | 0.00 | 0.00 | 0.00 | 82 | 1013.7 |
| 20260904063014 | 65 | 232 | 2.0 | 9.0 | 0.00 | 0.00 | 0.00 | 83 | 1013.8 |
| 20260904062523 | 65 | 222 | 3.0 | 12.0 | 0.00 | 0.00 | 0.00 | 83 | 1013.9 |
| 20260904062029 | 65 | 181 | 4.0 | 12.0 | 0.00 | 0.00 | 0.00 | 83 | 1013.9 |
| 20260904061511 | 65 | 229 | 3.0 | 11.0 | 0.00 | 0.00 | 0.00 | 83 | 1014.0 |
| 20260904061019 | 65 | 219 | 2.0 | 13.0 | 0.00 | 0.00 | 0.00 | 84 | 1014.2 |
| 20260904060526 | 64 | 185 | 4.0 | 13.0 | 0.00 | 0.00 | 0.00 | 84 | 1014.3 |
| 20260904060032 | 64 | 229 | 3.0 | 12.0 | 0.00 | 0.00 | 0.00 | 85 | 1014.3 |
| 20260904055544 | 64 | 266 | 1.0 | 10.0 | 0.00 | 0.00 | 0.00 | 85 | 1014.2 |
| 20260904055050 | 63 | 238 | 2.0 | 10.0 | 0.00 | 0.00 | 0.00 | 85 | 1014.2 |
| 20260904054558 | 63 | 251 | 0.0 | 5.0 | 0.00 | 0.00 | 0.00 | 85 | 1014.1 |
| 20260904054008 | 63 | 207 | 1.0 | 7.0 | 0.00 | 0.00 | 0.00 | 85 | 1014.1 |
| 20260904053548 | 63 | 231 | 1.0 | 7.0 | 0.00 | 0.00 | 0.00 | 85 | 1014.1 |
| 20260904053059 | 63 | 219 | 1.0 | 4.0 | 0.00 | 0.00 | 0.00 | 85 | 1014.1 |
| 20260904052601 | 63 | 119 | 1.0 | 9.0 | 0.00 | 0.00 | 0.00 | 85 | 1014.2 |
| 20260904052501 | 63 | 216 | 0.0 | 9.0 | 0.00 | 0.00 | 0.00 | 85 | 1014.2 |
| 20260904052005 | 63 | 221 | 1.0 | 9.0 | 0.00 | 0.00 | 0.00 | 85 | 1014.2 |
| 20260904051518 | 63 | 239 | 1.0 | 7.0 | 0.00 | 0.00 | 0.00 | 85 | 1014.3 |
| 20260904051020 | 63 | 226 | 0.0 | 7.0 | 0.00 | 0.00 | 0.00 | 85 | 1014.3 |
| 20260904050527 | 63 | 187 | 1.0 | 7.0 | 0.00 | 0.00 | 0.00 | 85 | 1014.5 |
| 20260904050038 | 63 | 223 | 1.0 | 10.0 | 0.00 | 0.00 | 0.00 | 85 | 1014.6 |
| 20260904045543 | 63 | 232 | 1.0 | 10.0 | 0.00 | 0.00 | 0.00 | 85 | 1014.5 |
| 20260904045027 | 63 | 242 | 1.0 | 9.0 | 0.00 | 0.00 | 0.00 | 85 | 1014.6 |
| 20260904044506 | 63 | 264 | 3.0 | 9.0 | 0.00 | 0.00 | 0.00 | 85 | 1014.5 |
| 20260904044017 | 63 | 220 | 2.0 | 9.0 | 0.00 | 0.00 | 0.00 | 85 | 1014.6 |
| 20260904043525 | 63 | 229 | 1.0 | 9.0 | 0.00 | 0.00 | 0.00 | 85 | 1014.7 |
| 20260904043027 | 63 | 261 | 0.0 | 9.0 | 0.00 | 0.00 | 0.00 | 85 | 1014.5 |
| 20260904042509 | 63 | 248 | 1.0 | 9.0 | 0.00 | 0.00 | 0.00 | 85 | 1014.5 |
| 20260904042048 | 63 | 208 | 0.0 | 5.0 | 0.00 | 0.00 | 0.00 | 85 | 1014.5 |
| 20260904041557 | 63 | 232 | 2.0 | 5.0 | 0.00 | 0.00 | 0.00 | 85 | 1014.4 |
| 20260904041003 | 63 | 240 | 0.0 | 5.0 | 0.00 | 0.00 | 0.00 | 85 | 1014.3 |
| 20260904040512 | 63 | 234 | 0.0 | 5.0 | 0.00 | 0.00 | 0.00 | 85 | 1014.5 |
| 20260904040017 | 63 | 270 | 0.0 | 5.0 | 0.00 | 0.00 | 0.00 | 85 | 1014.6 |
| 20260904035525 | 63 | 228 | 2.0 | 5.0 | 0.00 | 0.00 | 0.00 | 85 | 1014.7 |
| 20260904035035 | 63 | 215 | 1.0 | 5.0 | 0.00 | 0.00 | 0.00 | 85 | 1014.8 |
| 20260904034513 | 63 | 230 | 1.0 | 6.0 | 0.00 | 0.00 | 0.00 | 85 | 1014.9 |
| 20260904034051 | 63 | 310 | 1.0 | 8.0 | 0.00 | 0.00 | 0.00 | 85 | 1014.9 |
| 20260904033559 | 63 | 236 | 1.0 | 12.0 | 0.00 | 0.00 | 0.00 | 85 | 1014.9 |
| 20260904033504 | 63 | 224 | 3.0 | 12.0 | 0.00 | 0.00 | 0.00 | 85 | 1014.9 |
| 20260904033010 | 63 | 238 | 4.0 | 9.0 | 0.00 | 0.00 | 0.00 | 85 | 1015.1 |
| 20260904032519 | 63 | 251 | 2.0 | 9.0 | 0.00 | 0.00 | 0.00 | 85 | 1014.8 |
| 20260904032025 | 63 | 243 | 3.0 | 9.0 | 0.00 | 0.00 | 0.00 | 85 | 1014.9 |
| 20260904031507 | 63 | 232 | 3.0 | 9.0 | 0.00 | 0.00 | 0.00 | 85 | 1014.8 |
| 20260904031047 | 63 | 238 | 2.0 | 7.0 | 0.00 | 0.00 | 0.00 | 85 | 1014.8 |
| 20260904030554 | 63 | 241 | 3.0 | 9.0 | 0.00 | 0.00 | 0.00 | 85 | 1014.6 |
| 20260904030003 | 63 | 238 | 1.0 | 9.0 | 0.00 | 0.00 | 0.00 | 84 | 1014.8 |
| 20260904025507 | 63 | 238 | 3.0 | 9.0 | 0.00 | 0.00 | 0.00 | 84 | 1015.1 |
| 20260904025013 | 63 | 224 | 5.0 | 11.0 | 0.00 | 0.00 | 0.00 | 84 | 1015.2 |
| 20260904024521 | 63 | 231 | 5.0 | 12.0 | 0.00 | 0.00 | 0.00 | 84 | 1015.2 |
| 20260904024029 | 63 | 274 | 2.0 | 12.0 | 0.00 | 0.00 | 0.00 | 85 | 1015.3 |
| 20260904023511 | 63 | 232 | 5.0 | 11.0 | 0.00 | 0.00 | 0.00 | 85 | 1015.2 |
| 20260904023053 | 62 | 246 | 4.0 | 11.0 | 0.00 | 0.00 | 0.00 | 85 | 1015.2 |
| 20260904022559 | 62 | 238 | 6.0 | 12.0 | 0.00 | 0.00 | 0.00 | 85 | 1015.1 |
| 20260904022501 | 62 | 254 | 7.0 | 12.0 | 0.00 | 0.00 | 0.00 | 85 | 1015.1 |
| 20260904022007 | 62 | 244 | 7.0 | 12.0 | 0.00 | 0.00 | 0.00 | 85 | 1015.1 |
| 20260904021515 | 62 | 276 | 3.0 | 12.0 | 0.00 | 0.00 | 0.00 | 85 | 1015.1 |
| 20260904021049 | 62 | 260 | 3.0 | 12.0 | 0.00 | 0.00 | 0.00 | 85 | 1015.1 |
| 20260904020531 | 62 | 217 | 3.0 | 14.0 | 0.00 | 0.00 | 0.00 | 85 | 1015.0 |
| 20260904020043 | 62 | 238 | 7.0 | 14.0 | 0.00 | 0.00 | 0.00 | 85 | 1015.0 |
| 20260904015549 | 62 | 233 | 6.0 | 12.0 | 0.00 | 0.00 | 0.00 | 85 | 1015.1 |
| 20260904015055 | 62 | 242 | 5.0 | 11.0 | 0.00 | 0.00 | 0.00 | 85 | 1015.2 |
| 20260904014505 | 62 | 258 | 5.0 | 12.0 | 0.00 | 0.00 | 0.00 | 85 | 1015.0 |
| 20260904014038 | 62 | 207 | 2.0 | 9.0 | 0.00 | 0.00 | 0.00 | 85 | 1015.0 |
| 20260904013519 | 62 | 219 | 1.0 | 11.0 | 0.00 | 0.00 | 0.00 | 85 | 1015.0 |
| 20260904013101 | 62 | 261 | 3.0 | 11.0 | 0.00 | 0.00 | 0.00 | 85 | 1015.1 |
| 20260904013001 | 62 | 236 | 1.0 | 8.0 | 0.00 | 0.00 | 0.00 | 85 | 1015.1 |
| 20260904012509 | 62 | 260 | 1.0 | 9.0 | 0.00 | 0.00 | 0.00 | 84 | 1015.0 |
| 20260904012016 | 62 | 242 | 4.0 | 9.0 | 0.00 | 0.00 | 0.00 | 84 | 1015.1 |
| 20260904011526 | 62 | 242 | 3.0 | 10.0 | 0.00 | 0.00 | 0.00 | 84 | 1015.2 |
| 20260904011029 | 62 | 240 | 0.0 | 11.0 | 0.00 | 0.00 | 0.00 | 84 | 1015.2 |
| 20260904010537 | 62 | 306 | 2.0 | 11.0 | 0.00 | 0.00 | 0.00 | 84 | 1015.3 |
| 20260904010049 | 62 | 240 | 3.0 | 9.0 | 0.00 | 0.00 | 0.00 | 84 | 1015.4 |
| 20260904005555 | 62 | 251 | 4.0 | 10.0 | 0.00 | 0.00 | 0.00 | 84 | 1015.5 |
| 20260904005055 | 62 | 276 | 1.0 | 8.0 | 0.00 | 0.00 | 0.00 | 84 | 1015.3 |
| 20260904005003 | 62 | 237 | 1.0 | 8.0 | 0.00 | 0.00 | 0.00 | 84 | 1015.3 |
| 20260904004536 | 62 | 224 | 3.0 | 10.0 | 0.00 | 0.00 | 0.00 | 84 | 1015.5 |
| 20260904004020 | 62 | 238 | 4.0 | 10.0 | 0.00 | 0.00 | 0.00 | 83 | 1015.5 |
| 20260904003521 | 62 | 238 | 3.0 | 10.0 | 0.00 | 0.00 | 0.00 | 83 | 1015.4 |
| 20260904003029 | 62 | 247 | 3.0 | 10.0 | 0.00 | 0.00 | 0.00 | 83 | 1015.5 |
| 20260904002541 | 63 | 227 | 3.0 | 11.0 | 0.00 | 0.00 | 0.00 | 83 | 1015.6 |
| 20260904002044 | 63 | 233 | 3.0 | 11.0 | 0.00 | 0.00 | 0.00 | 83 | 1015.5 |
| 20260904001551 | 63 | 257 | 3.0 | 9.0 | 0.00 | 0.00 | 0.00 | 83 | 1015.5 |
| 20260904001056 | 63 | 242 | 3.0 | 12.0 | 0.00 | 0.00 | 0.00 | 82 | 1015.5 |
| 20260904000509 | 63 | 237 | 4.0 | 12.0 | 0.00 | 0.00 | 0.00 | 82 | 1015.5 |
| 20260904000043 | 63 | 242 | 3.0 | 13.0 | 0.00 | 0.00 | 0.00 | 82 | 1015.5 |
| 20260903235550 | 63 | 288 | 5.0 | 14.0 | 0.00 | 0.00 | 0.00 | 82 | 1015.6 |
| 20260903235031 | 63 | 232 | 5.0 | 14.0 | 0.00 | 0.00 | 0.00 | 82 | 1015.7 |
| 20260903234543 | 63 | 248 | 5.0 | 11.0 | 0.00 | 0.00 | 0.00 | 82 | 1015.7 |
| 20260903234047 | 64 | 268 | 5.0 | 10.0 | 0.00 | 0.00 | 0.00 | 82 | 1015.6 |
| 20260903233554 | 64 | 285 | 4.0 | 13.0 | 0.00 | 0.00 | 0.00 | 81 | 1015.8 |
| 20260903233005 | 64 | 275 | 5.0 | 13.0 | 0.00 | 0.00 | 0.00 | 81 | 1015.8 |
| 20260903232515 | 64 | 241 | 6.0 | 13.0 | 0.00 | 0.00 | 0.00 | 82 | 1015.8 |
| 20260903232015 | 64 | 259 | 6.0 | 12.0 | 0.00 | 0.00 | 0.00 | 81 | 1015.9 |
| 20260903231523 | 64 | 281 | 7.0 | 12.0 | 0.00 | 0.00 | 0.00 | 81 | 1016.0 |
| 20260903231029 | 64 | 260 | 8.0 | 12.0 | 0.00 | 0.00 | 0.00 | 81 | 1016.0 |
| 20260903230509 | 64 | 235 | 4.0 | 14.0 | 0.00 | 0.00 | 0.00 | 81 | 1015.8 |
| 20260903230100 | 64 | 257 | 5.0 | 17.0 | 0.00 | 0.00 | 0.00 | 81 | 1015.8 |
| 20260903225558 | 64 | 248 | 8.0 | 17.0 | 0.00 | 0.00 | 0.00 | 81 | 1015.8 |
| 20260903225004 | 64 | 259 | 5.0 | 12.0 | 0.00 | 0.00 | 0.00 | 81 | 1015.8 |
| 20260903224532 | 64 | 251 | 5.0 | 11.0 | 0.00 | 0.00 | 0.00 | 81 | 1015.8 |
| 20260903224017 | 64 | 238 | 3.0 | 11.0 | 0.00 | 0.00 | 0.00 | 81 | 1015.8 |
| 20260903223551 | 64 | 254 | 6.0 | 10.0 | 0.00 | 0.00 | 0.00 | 81 | 1015.8 |
| 20260903223036 | 64 | 265 | 2.0 | 16.0 | 0.00 | 0.00 | 0.00 | 81 | 1015.8 |
| 20260903222548 | 64 | 216 | 6.0 | 16.0 | 0.00 | 0.00 | 0.00 | 81 | 1015.8 |
| 20260903222051 | 64 | 240 | 5.0 | 15.0 | 0.00 | 0.00 | 0.00 | 81 | 1015.9 |
| 20260903221559 | 63 | 249 | 4.0 | 12.0 | 0.00 | 0.00 | 0.00 | 81 | 1016.1 |
| 20260903221502 | 63 | 240 | 5.0 | 12.0 | 0.00 | 0.00 | 0.00 | 81 | 1016.1 |
| 20260903221006 | 63 | 267 | 4.0 | 13.0 | 0.00 | 0.00 | 0.00 | 82 | 1016.0 |
| 20260903220515 | 63 | 241 | 5.0 | 13.0 | 0.00 | 0.00 | 0.00 | 82 | 1015.9 |
| 20260903220022 | 63 | 227 | 5.0 | 13.0 | 0.00 | 0.00 | 0.00 | 82 | 1016.0 |
| 20260903215525 | 63 | 230 | 5.0 | 12.0 | 0.00 | 0.00 | 0.00 | 82 | 1016.1 |
| 20260903215032 | 63 | 227 | 5.0 | 14.0 | 0.00 | 0.00 | 0.00 | 82 | 1016.2 |
| 20260903214551 | 63 | 248 | 7.0 | 14.0 | 0.00 | 0.00 | 0.00 | 82 | 1016.1 |
| 20260903214051 | 63 | 227 | 4.0 | 13.0 | 0.00 | 0.00 | 0.00 | 82 | 1016.1 |
| 20260903213554 | 63 | 265 | 4.0 | 15.0 | 0.00 | 0.00 | 0.00 | 82 | 1016.0 |
| 20260903213046 | 63 | 242 | 5.0 | 16.0 | 0.00 | 0.00 | 0.00 | 82 | 1016.1 |
| 20260903212549 | 63 | 269 | 7.0 | 16.0 | 0.00 | 0.00 | 0.00 | 82 | 1016.1 |